Time;durP1;ratioP1;P1;durP2;ratioP2;P2;SDS_P1;SDS_P2;PMS_P1;PMS_P2;Temp;Humidity;BMP_temperature;BMP_pressure;BME280_temperature;BME280_humidity;BME280_pressure;Samples;Min_cycle;Max_cycle;Signal;HPM_P1;HPM_P2
2022/11/28 00:01:34;;;;;;;;;;;;;;;3.70;100.00;98110.94;5070856;28;19987;-60
2022/11/28 00:04:02;;;;;;;;;;;;;;;3.63;100.00;98100.41;5070997;28;19932;-61
2022/11/28 00:06:28;;;;;;;;;;;;;;;3.65;100.00;98094.94;5071034;28;19978;-61
2022/11/28 00:08:54;;;;;;;;;;;;;;;3.67;100.00;98093.69;5053237;28;19964;-60
2022/11/28 00:11:21;;;;;;;;;;;;;;;3.62;100.00;98090.09;5070807;28;19925;-60
2022/11/28 00:13:47;;;;;;;;;;;;;;;3.65;100.00;98090.44;5070799;28;19980;-60
2022/11/28 00:16:15;;;;;;;;;;;;;;;3.72;100.00;98080.63;5070688;28;20033;-61
2022/11/28 00:18:41;;;;;;;;;;;;;;;3.72;100.00;98080.63;5070558;28;19925;-61
2022/11/28 00:21:10;;;;;;;;;;;;;;;3.66;100.00;98078.03;5070617;28;19924;-61
2022/11/28 00:23:36;;;;;;;;;;;;;;;3.65;100.00;98073.81;5062304;28;19983;-60
2022/11/28 00:26:04;;;;;;;;;;;;;;;3.64;100.00;98066.91;5070433;28;19956;-61
2022/11/28 00:28:30;;;;;;;;;;;;;;;3.70;100.00;98071.31;5070590;28;19956;-61
2022/11/28 00:30:59;;;;;;;;;;;;;;;3.62;100.00;98063.69;5069794;28;21216;-61
2022/11/28 00:33:25;;;;;;;;;;;;;;;3.66;100.00;98059.56;5070242;28;19992;-60
2022/11/28 00:35:57;;;;;;;;;;;;;;;3.70;100.00;98060.75;5069759;28;19939;-61
2022/11/28 00:38:25;;;;;;;;;;;;;;;3.68;100.00;98054.88;5070140;28;19925;-61
2022/11/28 00:40:57;;;;;;;;;;;;;;;3.70;100.00;98064.22;5070679;28;19928;-62
2022/11/28 00:43:24;;;;;;;;;;;;;;;3.75;100.00;98060.91;5070476;28;19985;-63
2022/11/28 00:45:50;;;;;;;;;;;;;;;3.72;100.00;98056.06;5070486;28;20004;-60
2022/11/28 00:48:16;;;;;;;;;;;;;;;3.71;100.00;98057.09;5069945;28;19984;-60
2022/11/28 00:50:43;;;;;;;;;;;;;;;3.68;100.00;98058.31;5070207;28;19924;-60
2022/11/28 00:53:09;;;;;;;;;;;;;;;3.65;100.00;98061.38;5068730;28;20027;-60
2022/11/28 00:55:39;;;;;;;;;;;;;;;3.66;100.00;98064.84;5061807;28;19924;-61
2022/11/28 00:58:05;;;;;;;;;;;;;;;3.55;100.00;98057.63;5070033;28;20007;-60
2022/11/28 01:00:32;;;;;;;;;;;;;;;3.64;100.00;98056.34;5069658;28;20006;-60
2022/11/28 01:02:58;;;;;;;;;;;;;;;3.68;100.00;98062.81;5069628;28;19924;-61
2022/11/28 01:05:25;;;;;;;;;;;;;;;3.69;100.00;98051.19;5069637;28;19980;-60
2022/11/28 01:07:51;;;;;;;;;;;;;;;3.69;100.00;98046.72;5069712;28;20016;-60
2022/11/28 01:10:17;;;;;;;;;;;;;;;3.77;100.00;98051.78;5069479;28;19988;-60
2022/11/28 01:12:45;;;;;;;;;;;;;;;3.63;100.00;98046.78;5051928;28;19956;-59
2022/11/28 01:15:12;;;;;;;;;;;;;;;3.62;100.00;98048.63;5069420;28;19924;-60
2022/11/28 01:17:39;;;;;;;;;;;;;;;3.66;100.00;98054.28;5069355;28;19929;-61
2022/11/28 01:20:06;;;;;;;;;;;;;;;3.70;100.00;98042.25;5069374;28;19980;-60
2022/11/28 01:22:33;;;;;;;;;;;;;;;3.65;100.00;98042.13;5068098;28;20008;-61
2022/11/28 01:24:59;;;;;;;;;;;;;;;3.62;100.00;98032.78;5069467;28;19925;-60
2022/11/28 01:27:25;;;;;;;;;;;;;;;3.59;100.00;98029.78;5069076;28;19925;-60
2022/11/28 01:29:53;;;;;;;;;;;;;;;3.60;100.00;98023.44;5069212;28;20733;-60
2022/11/28 01:32:19;;;;;;;;;;;;;;;3.61;100.00;98017.97;5069086;28;20002;-61
2022/11/28 01:34:46;;;;;;;;;;;;;;;3.65;100.00;98015.72;5069318;28;19925;-61
2022/11/28 01:37:12;;;;;;;;;;;;;;;3.62;100.00;98016.91;5069071;28;19975;-60
2022/11/28 01:39:38;;;;;;;;;;;;;;;3.58;100.00;98020.22;5069256;28;20318;-60
2022/11/28 01:42:05;;;;;;;;;;;;;;;3.56;100.00;98011.72;5069186;28;19948;-60
2022/11/28 01:44:50;;;;;;;;;;;;;;;3.47;100.00;98012.97;5069042;28;19980;-59
2022/11/28 01:47:20;;;;;;;;;;;;;;;3.47;100.00;97997.97;5070141;28;19924;-61
2022/11/28 01:49:47;;;;;;;;;;;;;;;3.50;100.00;97997.53;5073391;28;20024;-60
2022/11/28 01:52:17;;;;;;;;;;;;;;;3.52;100.00;97998.13;5072057;28;19925;-60
2022/11/28 01:54:45;;;;;;;;;;;;;;;3.54;100.00;97993.44;5073325;28;19992;-60
2022/11/28 01:57:15;;;;;;;;;;;;;;;3.47;100.00;97991.88;5073078;28;20094;-59
2022/11/28 01:59:43;;;;;;;;;;;;;;;3.48;100.00;97996.94;5073013;28;19928;-60
2022/11/28 02:02:13;;;;;;;;;;;;;;;3.51;100.00;98009.72;5073071;28;19988;-59
2022/11/28 02:04:41;;;;;;;;;;;;;;;3.55;100.00;97996.91;5065282;28;19974;-60
2022/11/28 02:07:08;;;;;;;;;;;;;;;3.63;100.00;98001.88;5072977;28;20354;-60
2022/11/28 02:09:34;;;;;;;;;;;;;;;3.67;100.00;97988.06;5072956;28;19956;-61
2022/11/28 02:12:11;;;;;;;;;;;;;;;3.63;100.00;97986.03;5072782;28;19964;-60
2022/11/28 02:14:49;;;;;;;;;;;;;;;3.64;100.00;97983.19;5064947;28;19985;-60
2022/11/28 02:17:19;;;;;;;;;;;;;;;3.59;100.00;97983.03;5072711;28;19984;-61
2022/11/28 02:20:01;;;;;;;;;;;;;;;3.61;100.00;97985.47;5072523;28;19984;-60
2022/11/28 02:22:31;;;;;;;;;;;;;;;3.59;100.00;97985.66;5068361;28;19929;-61
2022/11/28 02:25:07;;;;;;;;;;;;;;;3.61;100.00;97988.09;5072576;28;19928;-60
2022/11/28 02:27:52;;;;;;;;;;;;;;;3.64;100.00;97982.38;5072638;28;19952;-60
2022/11/28 02:30:19;;;;;;;;;;;;;;;3.72;100.00;97979.47;5072431;28;19992;-61
2022/11/28 02:32:55;;;;;;;;;;;;;;;3.80;100.00;97984.47;5072713;28;19988;-61
2022/11/28 02:35:23;;;;;;;;;;;;;;;3.80;100.00;97981.84;5072459;28;20015;-60
2022/11/28 02:37:58;;;;;;;;;;;;;;;3.73;100.00;97971.34;5072669;28;19932;-60
2022/11/28 02:40:26;;;;;;;;;;;;;;;3.69;100.00;97958.78;5072272;28;19925;-61
2022/11/28 02:42:59;;;;;;;;;;;;;;;3.63;100.00;97957.81;5072512;28;19971;-61
2022/11/28 02:45:29;;;;;;;;;;;;;;;3.60;100.00;97966.16;5072307;28;20012;-61
2022/11/28 02:48:01;;;;;;;;;;;;;;;3.57;100.00;97963.16;5072294;28;19971;-61
2022/11/28 02:50:30;;;;;;;;;;;;;;;3.55;100.00;97959.94;5072097;28;19980;-60
2022/11/28 02:52:59;;;;;;;;;;;;;;;3.65;100.00;97979.53;5053412;28;19973;-60
2022/11/28 02:55:26;;;;;;;;;;;;;;;3.80;100.00;97979.19;5072029;28;19924;-61
2022/11/28 02:57:53;;;;;;;;;;;;;;;3.79;100.00;97985.50;5072063;28;20000;-61
2022/11/28 03:00:23;;;;;;;;;;;;;;;3.82;100.00;97998.28;5070810;28;19963;-60
2022/11/28 03:02:53;;;;;;;;;;;;;;;3.79;100.00;97994.22;5071807;28;19964;-60
2022/11/28 03:05:24;;;;;;;;;;;;;;;3.77;100.00;97995.47;5071886;28;20020;-60
2022/11/28 03:07:56;;;;;;;;;;;;;;;3.90;100.00;97994.56;5071822;28;19970;-60
2022/11/28 03:10:24;;;;;;;;;;;;;;;3.96;100.00;97989.19;5071660;28;19988;-60
2022/11/28 03:12:53;;;;;;;;;;;;;;;3.85;100.00;97984.63;5071928;28;19925;-60
2022/11/28 03:15:21;;;;;;;;;;;;;;;3.81;100.00;97989.53;5071640;28;19952;-60
2022/11/28 03:17:52;;;;;;;;;;;;;;;3.89;100.00;97985.81;5071709;28;19996;-61
2022/11/28 03:20:22;;;;;;;;;;;;;;;3.86;100.00;97980.16;5071584;28;19925;-60
2022/11/28 03:22:58;;;;;;;;;;;;;;;3.80;100.00;97979.19;5070248;28;19971;-60
2022/11/28 03:25:28;;;;;;;;;;;;;;;3.74;100.00;97977.44;5071467;28;19932;-60
2022/11/28 03:27:57;;;;;;;;;;;;;;;3.77;100.00;97982.28;5071683;28;20062;-61
2022/11/28 03:30:27;;;;;;;;;;;;;;;3.70;100.00;97970.97;5071441;28;20059;-61
2022/11/28 03:32:54;;;;;;;;;;;;;;;3.88;100.00;97967.53;5071608;28;19929;-60
2022/11/28 03:35:23;;;;;;;;;;;;;;;3.78;100.00;97968.03;5071341;28;19967;-61
2022/11/28 03:37:53;;;;;;;;;;;;;;;3.66;100.00;97969.75;5071316;28;19931;-60
2022/11/28 03:40:22;;;;;;;;;;;;;;;3.61;100.00;97966.97;5071136;28;20413;-60
2022/11/28 03:42:50;;;;;;;;;;;;;;;3.58;100.00;97956.84;5053461;28;19925;-60
2022/11/28 03:45:19;;;;;;;;;;;;;;;3.61;100.00;97945.84;5070969;28;19925;-60
2022/11/28 03:47:47;;;;;;;;;;;;;;;3.55;100.00;97944.09;5070989;28;19952;-61
2022/11/28 03:50:15;;;;;;;;;;;;;;;3.45;100.00;97941.13;5070993;28;19925;-60
2022/11/28 03:52:46;;;;;;;;;;;;;;;3.57;100.00;97928.81;5069917;28;19932;-61
2022/11/28 03:55:16;;;;;;;;;;;;;;;3.47;100.00;97929.31;5070748;28;19931;-61
2022/11/28 03:57:45;;;;;;;;;;;;;;;3.64;100.00;97929.56;5070731;28;20003;-60
2022/11/28 04:00:12;;;;;;;;;;;;;;;3.61;100.00;97928.19;5070700;28;19967;-61
2022/11/28 04:02:42;;;;;;;;;;;;;;;3.55;100.00;97936.16;5070789;28;19924;-60
2022/11/28 04:05:14;;;;;;;;;;;;;;;3.62;100.00;97919.22;5070619;28;19996;-60
2022/11/28 04:07:43;;;;;;;;;;;;;;;3.57;100.00;97915.63;5063356;28;19980;-60
2022/11/28 04:10:14;;;;;;;;;;;;;;;3.60;100.00;97923.09;5070645;28;19989;-60
2022/11/28 04:12:48;;;;;;;;;;;;;;;3.66;100.00;97916.94;5063159;28;19992;-60
2022/11/28 04:15:17;;;;;;;;;;;;;;;3.67;100.00;97914.09;5070397;28;19981;-61
2022/11/28 04:17:49;;;;;;;;;;;;;;;3.60;100.00;97908.06;5052685;28;19929;-61
2022/11/28 04:20:19;;;;;;;;;;;;;;;3.61;100.00;97914.16;5070238;28;19921;-59
2022/11/28 04:22:47;;;;;;;;;;;;;;;3.78;100.00;97916.00;5068671;28;20015;-60
2022/11/28 04:25:16;;;;;;;;;;;;;;;3.76;100.00;97914.63;5070612;28;20000;-60
2022/11/28 04:27:46;;;;;;;;;;;;;;;3.55;100.00;97920.31;5070355;28;19952;-59
2022/11/28 04:30:14;;;;;;;;;;;;;;;3.51;100.00;97919.13;5069953;28;20451;-60
2022/11/28 04:32:45;;;;;;;;;;;;;;;3.45;100.00;97910.25;5070299;28;19967;-60
2022/11/28 04:35:16;;;;;;;;;;;;;;;3.48;100.00;97906.38;5069884;28;20336;-60
2022/11/28 04:37:47;;;;;;;;;;;;;;;3.58;100.00;97907.50;5069905;28;19952;-60
2022/11/28 04:40:14;;;;;;;;;;;;;;;3.57;100.00;97902.41;5069743;28;19924;-60
2022/11/28 04:42:43;;;;;;;;;;;;;;;3.60;100.00;97899.34;5070147;28;20052;-61
2022/11/28 04:45:11;;;;;;;;;;;;;;;3.53;100.00;97906.53;5069982;28;20357;-60
2022/11/28 04:47:39;;;;;;;;;;;;;;;3.53;100.00;97890.69;5062043;28;19925;-60
2022/11/28 04:50:06;;;;;;;;;;;;;;;3.45;100.00;97883.03;5069725;28;19924;-60
2022/11/28 04:52:36;;;;;;;;;;;;;;;3.36;100.00;97879.06;5068431;28;19980;-60
2022/11/28 04:55:06;;;;;;;;;;;;;;;3.29;100.00;97868.56;5069675;28;19984;-60
2022/11/28 04:57:35;;;;;;;;;;;;;;;3.36;100.00;97871.16;5069624;28;19924;-60
2022/11/28 05:00:01;;;;;;;;;;;;;;;3.41;100.00;97871.28;5069710;28;19928;-60
2022/11/28 05:02:28;;;;;;;;;;;;;;;3.43;100.00;97879.81;5069599;28;19988;-60
2022/11/28 05:04:57;;;;;;;;;;;;;;;3.56;100.00;97883.13;5069730;28;19929;-60
2022/11/28 05:07:23;;;;;;;;;;;;;;;3.52;100.00;97876.69;5069527;28;20377;-60
2022/11/28 05:09:49;;;;;;;;;;;;;;;3.44;100.00;97882.22;5069817;28;20035;-61
2022/11/28 05:12:16;;;;;;;;;;;;;;;3.35;100.00;97858.97;5069489;28;19992;-61
2022/11/28 05:14:42;;;;;;;;;;;;;;;3.31;100.00;97865.72;5069456;28;19927;-61
2022/11/28 05:17:10;;;;;;;;;;;;;;;3.32;100.00;97872.59;5069563;28;19996;-60
2022/11/28 05:19:37;;;;;;;;;;;;;;;3.29;100.00;97873.84;5061573;28;19980;-60
2022/11/28 05:22:04;;;;;;;;;;;;;;;3.25;100.00;97873.47;5068372;28;19980;-60
2022/11/28 05:24:31;;;;;;;;;;;;;;;3.26;100.00;97872.47;5069124;28;20402;-60
2022/11/28 05:26:57;;;;;;;;;;;;;;;3.32;100.00;97881.34;5070091;28;19975;-61
2022/11/28 05:29:24;;;;;;;;;;;;;;;3.30;100.00;97874.66;5069619;28;19980;-60
2022/11/28 05:31:50;;;;;;;;;;;;;;;3.33;100.00;97868.94;5069471;28;19931;-60
2022/11/28 05:34:17;;;;;;;;;;;;;;;3.22;100.00;97873.91;5069471;28;19981;-59
2022/11/28 05:36:43;;;;;;;;;;;;;;;3.34;100.00;97871.38;5069647;28;19987;-60
2022/11/28 05:39:11;;;;;;;;;;;;;;;3.20;100.00;97865.41;5069765;28;20491;-60
2022/11/28 05:41:37;;;;;;;;;;;;;;;3.30;100.00;97853.56;5061140;28;19928;-60
2022/11/28 05:44:03;;;;;;;;;;;;;;;3.16;100.00;97853.66;5069267;28;20004;-61
2022/11/28 05:46:30;;;;;;;;;;;;;;;3.13;100.00;97854.09;5069217;28;20025;-60
2022/11/28 05:48:56;;;;;;;;;;;;;;;3.14;100.00;97860.19;5069146;28;19969;-60
2022/11/28 05:51:23;;;;;;;;;;;;;;;3.11;100.00;97856.16;5069163;28;19935;-60
2022/11/28 05:53:49;;;;;;;;;;;;;;;3.19;100.00;97860.34;5068194;28;19996;-60
2022/11/28 05:56:18;;;;;;;;;;;;;;;3.22;100.00;97858.06;5069312;28;19920;-60
2022/11/28 05:58:44;;;;;;;;;;;;;;;3.20;100.00;97860.13;5069512;28;19925;-61
2022/11/28 06:01:12;;;;;;;;;;;;;;;3.23;100.00;97858.88;5068999;28;20012;-61
2022/11/28 06:03:38;;;;;;;;;;;;;;;3.22;100.00;97852.81;5061243;28;19935;-60
2022/11/28 06:06:08;;;;;;;;;;;;;;;3.42;100.00;97859.72;5069036;28;20122;-60
2022/11/28 06:08:34;;;;;;;;;;;;;;;3.20;100.00;97846.13;5069006;28;20011;-60
2022/11/28 06:11:00;;;;;;;;;;;;;;;3.19;100.00;97837.41;5069149;28;20005;-61
2022/11/28 06:13:28;;;;;;;;;;;;;;;3.24;100.00;97832.28;5068881;28;19924;-60
2022/11/28 06:15:54;;;;;;;;;;;;;;;3.18;100.00;97841.09;5069010;28;20019;-61
2022/11/28 06:18:21;;;;;;;;;;;;;;;3.14;100.00;97839.91;5068653;28;19925;-60
2022/11/28 06:20:47;;;;;;;;;;;;;;;3.09;100.00;97833.66;5068769;28;19947;-61
2022/11/28 06:23:13;;;;;;;;;;;;;;;3.12;100.00;97825.31;5067116;28;20472;-60
2022/11/28 06:25:40;;;;;;;;;;;;;;;3.17;100.00;97844.75;5068747;28;20004;-60
2022/11/28 06:28:06;;;;;;;;;;;;;;;3.67;100.00;97842.81;5068977;28;19968;-60
2022/11/28 06:30:34;;;;;;;;;;;;;;;3.64;100.00;97845.06;5069147;28;19980;-61
2022/11/28 06:33:00;;;;;;;;;;;;;;;3.51;100.00;97846.03;5068918;28;19967;-61
2022/11/28 06:35:26;;;;;;;;;;;;;;;3.69;100.00;97853.13;5071555;28;19925;-61
2022/11/28 06:37:53;;;;;;;;;;;;;;;3.55;100.00;97852.47;5072671;28;19925;-60
2022/11/28 06:40:19;;;;;;;;;;;;;;;3.33;100.00;97853.13;5072265;28;19980;-60
2022/11/28 06:42:49;;;;;;;;;;;;;;;3.25;100.00;97836.53;5072536;28;20668;-60
2022/11/28 06:45:15;;;;;;;;;;;;;;;3.22;100.00;97846.72;5072552;28;19929;-60
2022/11/28 06:47:43;;;;;;;;;;;;;;;3.12;100.00;97852.50;5072420;28;19955;-61
2022/11/28 06:50:10;;;;;;;;;;;;;;;3.15;100.00;97843.34;5072565;28;19932;-60
2022/11/28 06:52:36;;;;;;;;;;;;;;;3.14;100.00;97833.81;5063069;28;19929;-59
2022/11/28 06:55:02;;;;;;;;;;;;;;;3.23;100.00;97833.31;5072430;28;19925;-60
2022/11/28 06:57:29;;;;;;;;;;;;;;;3.15;100.00;97820.41;5072434;28;19984;-59
2022/11/28 06:59:55;;;;;;;;;;;;;;;3.00;100.00;97806.72;5072371;28;19936;-60
2022/11/28 07:02:23;;;;;;;;;;;;;;;2.98;100.00;97794.78;5071908;28;20027;-60
2022/11/28 07:04:51;;;;;;;;;;;;;;;2.92;100.00;97778.00;5072456;28;19936;-60
2022/11/28 07:07:17;;;;;;;;;;;;;;;2.80;100.00;97763.91;5071972;28;20012;-59
2022/11/28 07:09:44;;;;;;;;;;;;;;;2.89;100.00;97767.06;5072061;28;19996;-59
2022/11/28 07:12:10;;;;;;;;;;;;;;;2.94;100.00;97785.72;5071803;28;19924;-61
2022/11/28 07:14:37;;;;;;;;;;;;;;;2.96;100.00;97805.56;5071913;28;19992;-60
2022/11/28 07:17:03;;;;;;;;;;;;;;;2.96;100.00;97794.22;5070496;28;19924;-60
2022/11/28 07:19:29;;;;;;;;;;;;;;;3.29;100.00;97797.31;5071488;28;20397;-60
2022/11/28 07:21:57;;;;;;;;;;;;;;;3.23;100.00;97806.13;5071395;28;20019;-60
2022/11/28 07:24:23;;;;;;;;;;;;;;;3.31;100.00;97818.22;5070503;28;19985;-60
2022/11/28 07:26:50;;;;;;;;;;;;;;;3.23;100.00;97816.66;5071642;28;19935;-60
2022/11/28 07:29:17;;;;;;;;;;;;;;;3.08;100.00;97805.66;5071491;28;19929;-63
2022/11/28 07:31:43;;;;;;;;;;;;;;;3.03;100.00;97798.38;5071343;28;19951;-60
2022/11/28 07:34:10;;;;;;;;;;;;;;;3.01;100.00;97802.25;5071616;28;19967;-60
2022/11/28 07:36:37;;;;;;;;;;;;;;;2.97;100.00;97795.84;5071291;28;19924;-59
2022/11/28 07:39:07;;;;;;;;;;;;;;;3.07;100.00;97811.94;5071177;28;19989;-60
2022/11/28 07:41:33;;;;;;;;;;;;;;;3.13;100.00;97816.34;5070874;28;19932;-60
2022/11/28 07:44:00;;;;;;;;;;;;;;;3.46;100.00;97808.09;5071031;28;19932;-60
2022/11/28 07:46:27;;;;;;;;;;;;;;;3.03;100.00;97798.38;5070507;28;20024;-60
2022/11/28 07:48:54;;;;;;;;;;;;;;;3.13;100.00;97803.16;5070902;28;19935;-59
2022/11/28 07:51:21;;;;;;;;;;;;;;;3.04;100.00;97800.00;5070852;28;19980;-60
2022/11/28 07:53:47;;;;;;;;;;;;;;;2.98;100.00;97800.06;5069687;28;19980;-61
2022/11/28 07:56:16;;;;;;;;;;;;;;;2.88;100.00;97792.63;5070767;28;19999;-60
2022/11/28 07:58:44;;;;;;;;;;;;;;;2.94;100.00;97807.59;5070879;28;19992;-59
2022/11/28 08:01:11;;;;;;;;;;;;;;;3.28;100.00;97825.53;5070836;28;19952;-60
2022/11/28 08:03:37;;;;;;;;;;;;;;;3.23;100.00;97829.84;5062567;28;19935;-60
2022/11/28 08:06:05;;;;;;;;;;;;;;;2.83;100.00;97800.41;5070422;28;19935;-60
2022/11/28 08:08:31;;;;;;;;;;;;;;;2.97;100.00;97795.84;5070279;28;19941;-60
2022/11/28 08:10:58;;;;;;;;;;;;;;;3.32;100.00;97830.38;5070618;28;19956;-60
2022/11/28 08:13:26;;;;;;;;;;;;;;;3.20;100.00;97825.84;5052459;28;19943;-59
2022/11/28 08:15:53;;;;;;;;;;;;;;;2.98;100.00;97803.50;5052520;28;19992;-61
2022/11/28 08:18:19;;;;;;;;;;;;;;;3.08;100.00;97810.94;5070395;28;19980;-61
2022/11/28 08:20:46;;;;;;;;;;;;;;;3.31;100.00;97818.22;5070412;28;20008;-60
2022/11/28 08:23:12;;;;;;;;;;;;;;;3.00;100.00;97798.03;5068951;28;20032;-61
2022/11/28 08:25:38;;;;;;;;;;;;;;;3.31;100.00;97816.41;5070544;28;19924;-61
2022/11/28 08:28:05;;;;;;;;;;;;;;;3.60;100.00;97823.56;5070372;28;20028;-59
2022/11/28 08:30:32;;;;;;;;;;;;;;;3.62;100.00;97820.72;5070437;28;19936;-60
2022/11/28 08:32:59;;;;;;;;;;;;;;;3.70;100.00;97830.97;5070428;28;20023;-61
2022/11/28 08:35:25;;;;;;;;;;;;;;;3.74;100.00;97845.38;5070025;28;20134;-60
2022/11/28 08:37:51;;;;;;;;;;;;;;;3.30;100.00;97846.44;5070270;28;19988;-60
2022/11/28 08:40:18;;;;;;;;;;;;;;;3.45;100.00;97861.94;5069910;28;19925;-60
2022/11/28 08:42:44;;;;;;;;;;;;;;;3.64;100.00;97860.91;5069819;28;19925;-60
2022/11/28 08:45:11;;;;;;;;;;;;;;;3.61;100.00;97856.88;5070048;28;20624;-60
2022/11/28 08:47:38;;;;;;;;;;;;;;;3.58;100.00;97864.44;5061988;28;19925;-60
2022/11/28 08:50:05;;;;;;;;;;;;;;;3.41;100.00;97858.09;5069840;28;19996;-60
2022/11/28 08:52:32;;;;;;;;;;;;;;;3.51;100.00;97861.06;5068673;28;20008;-61
2022/11/28 08:54:59;;;;;;;;;;;;;;;3.37;100.00;97846.38;5069801;28;19988;-61
2022/11/28 08:57:25;;;;;;;;;;;;;;;3.40;100.00;97840.66;5069011;28;19964;-60
2022/11/28 08:59:51;;;;;;;;;;;;;;;3.42;100.00;97855.25;5069814;28;20294;-61
2022/11/28 09:02:18;;;;;;;;;;;;;;;3.33;100.00;97850.47;5069459;28;19935;-60
2022/11/28 09:04:46;;;;;;;;;;;;;;;3.31;100.00;97860.47;5069782;28;20013;-61
2022/11/28 09:07:12;;;;;;;;;;;;;;;3.57;100.00;97860.19;5069551;28;19924;-60
2022/11/28 09:09:38;;;;;;;;;;;;;;;3.80;100.00;97871.72;5069828;28;19976;-61
2022/11/28 09:12:05;;;;;;;;;;;;;;;3.90;100.00;97868.53;5069572;28;19965;-60
2022/11/28 09:14:31;;;;;;;;;;;;;;;3.81;100.00;97873.31;5069594;28;20023;-61
2022/11/28 09:16:57;;;;;;;;;;;;;;;3.74;100.00;97871.78;5069496;28;19935;-61
2022/11/28 09:19:24;;;;;;;;;;;;;;;3.83;100.00;97865.19;5069457;28;20000;-61
2022/11/28 09:21:51;;;;;;;;;;;;;;;3.94;100.00;97856.50;5069367;28;19927;-61
2022/11/28 09:24:18;;;;;;;;;;;;;;;3.80;100.00;97855.06;5068070;28;19976;-61
2022/11/28 09:26:44;;;;;;;;;;;;;;;3.86;100.00;97842.78;5069469;28;19984;-61
2022/11/28 09:29:10;;;;;;;;;;;;;;;3.81;100.00;97832.88;5069562;28;19956;-61
2022/11/28 09:31:37;;;;;;;;;;;;;;;3.99;100.00;97832.84;5043376;28;20000;-60
2022/11/28 09:34:03;;;;;;;;;;;;;;;4.16;100.00;97844.44;5069478;28;20024;-60
2022/11/28 09:36:31;;;;;;;;;;;;;;;4.17;100.00;97829.38;5069349;28;19957;-60
2022/11/28 09:39:00;;;;;;;;;;;;;;;4.24;100.00;97830.88;5069242;28;19974;-60
2022/11/28 09:41:37;;;;;;;;;;;;;;;4.26;100.00;97828.03;5069001;28;20511;-60
2022/11/28 09:44:08;;;;;;;;;;;;;;;4.25;100.00;97821.13;5069456;28;19925;-60
2022/11/28 09:46:36;;;;;;;;;;;;;;;4.33;100.00;97826.13;5069300;28;20028;-60
2022/11/28 09:49:04;;;;;;;;;;;;;;;4.08;100.00;97815.69;5069359;28;19971;-61
2022/11/28 09:51:34;;;;;;;;;;;;;;;4.11;100.00;97819.72;5069160;28;20027;-62
2022/11/28 09:54:04;;;;;;;;;;;;;;;4.00;100.00;97812.53;5067934;28;19952;-61
2022/11/28 09:56:31;;;;;;;;;;;;;;;3.90;100.00;97809.63;5069036;28;19988;-60
2022/11/28 09:59:01;;;;;;;;;;;;;;;3.81;100.00;97804.63;5069322;28;19996;-59
2022/11/28 10:01:33;;;;;;;;;;;;;;;3.80;100.00;97796.94;5069017;28;19931;-61
2022/11/28 10:04:02;;;;;;;;;;;;;;;3.80;100.00;97797.75;5069342;28;19925;-61
2022/11/28 10:06:33;;;;;;;;;;;;;;;3.84;100.00;97792.03;5069078;28;19951;-60
2022/11/28 10:09:05;;;;;;;;;;;;;;;3.67;100.00;97797.09;5071532;28;19960;-60
2022/11/28 10:11:38;;;;;;;;;;;;;;;3.68;100.00;97793.44;5073076;28;19951;-60
2022/11/28 10:14:09;;;;;;;;;;;;;;;3.72;100.00;97791.94;5073042;28;19960;-61
2022/11/28 10:16:43;;;;;;;;;;;;;;;3.67;100.00;97776.78;5073137;28;19994;-60
2022/11/28 10:19:11;;;;;;;;;;;;;;;3.74;100.00;97788.06;5072814;28;19960;-61
2022/11/28 10:21:39;;;;;;;;;;;;;;;3.86;100.00;97798.69;5064715;28;19989;-60
2022/11/28 10:24:11;;;;;;;;;;;;;;;3.93;100.00;97806.53;5071229;28;19928;-60
2022/11/28 10:26:39;;;;;;;;;;;;;;;3.92;100.00;97823.41;5064842;28;19992;-60
2022/11/28 10:29:13;;;;;;;;;;;;;;;4.00;100.00;97823.09;5071546;28;19924;-61
2022/11/28 10:31:41;;;;;;;;;;;;;;;3.97;100.00;97810.31;5064889;28;19980;-61
2022/11/28 10:34:13;;;;;;;;;;;;;;;3.96;100.00;97816.66;5072761;28;19960;-61
2022/11/28 10:36:48;;;;;;;;;;;;;;;4.00;100.00;97797.47;5064765;28;20476;-61
2022/11/28 10:39:16;;;;;;;;;;;;;;;4.00;100.00;97792.19;5072331;28;19925;-60
2022/11/28 10:42:10;;;;;;;;;;;;;;;4.02;100.00;97784.88;5072325;28;19921;-61
2022/11/28 10:44:38;;;;;;;;;;;;;;;4.07;100.00;97792.91;5072075;28;19960;-60
2022/11/28 10:47:07;;;;;;;;;;;;;;;4.11;100.00;97785.34;5072320;28;20000;-61
2022/11/28 10:49:50;;;;;;;;;;;;;;;4.15;100.00;97789.94;5072099;28;19925;-61
2022/11/28 10:52:21;;;;;;;;;;;;;;;4.20;100.00;97781.38;5070776;28;19997;-60
2022/11/28 10:55:03;;;;;;;;;;;;;;;4.25;100.00;97798.16;5072321;28;20007;-60
2022/11/28 10:57:31;;;;;;;;;;;;;;;4.21;100.00;97789.06;5072246;28;19925;-61
2022/11/28 11:00:01;;;;;;;;;;;;;;;4.27;100.00;97790.00;5072111;28;19988;-61
2022/11/28 11:02:31;;;;;;;;;;;;;;;4.14;100.00;97787.56;5054022;28;20091;-61
2022/11/28 11:04:58;;;;;;;;;;;;;;;4.14;100.00;97788.34;5072003;28;19960;-60
2022/11/28 11:07:27;;;;;;;;;;;;;;;4.01;100.00;97780.59;5071914;28;19972;-61
2022/11/28 11:09:53;;;;;;;;;;;;;;;4.04;100.00;97784.63;5071862;28;19925;-61
2022/11/28 11:12:23;;;;;;;;;;;;;;;3.99;100.00;97785.28;5071798;28;20000;-61
2022/11/28 11:14:49;;;;;;;;;;;;;;;4.08;100.00;97778.69;5071982;28;19924;-60
2022/11/28 11:17:26;;;;;;;;;;;;;;;4.12;100.00;97777.19;5071723;28;19931;-60
2022/11/28 11:19:52;;;;;;;;;;;;;;;4.08;100.00;97785.81;5070747;28;19967;-59
2022/11/28 11:22:21;;;;;;;;;;;;;;;4.21;100.00;97773.19;5069758;28;19958;-60
2022/11/28 11:25:04;;;;;;;;;;;;;;;4.24;100.00;97771.97;5071724;28;19984;-60
2022/11/28 11:27:32;;;;;;;;;;;;;;;4.13;100.00;97760.31;5071767;28;19939;-61
2022/11/28 11:29:59;;;;;;;;;;;;;;;4.18;100.00;97763.06;5071609;28;19952;-61
2022/11/28 11:32:26;;;;;;;;;;;;;;;4.17;100.00;97756.19;5071451;28;19929;-61
2022/11/28 11:34:54;;;;;;;;;;;;;;;4.22;100.00;97755.50;5071437;28;20031;-60
2022/11/28 11:37:29;;;;;;;;;;;;;;;4.24;100.00;97751.59;5071606;28;19925;-60
2022/11/28 11:39:56;;;;;;;;;;;;;;;4.25;100.00;97763.78;5071617;28;20039;-60
2022/11/28 11:42:23;;;;;;;;;;;;;;;4.14;100.00;97772.50;5071064;28;19925;-62
2022/11/28 11:44:51;;;;;;;;;;;;;;;4.13;100.00;97770.88;5071388;28;19956;-60
2022/11/28 11:47:17;;;;;;;;;;;;;;;4.16;100.00;97770.44;5071435;28;19935;-61
2022/11/28 11:49:45;;;;;;;;;;;;;;;4.21;100.00;97769.75;5071307;28;20031;-62
2022/11/28 11:52:22;;;;;;;;;;;;;;;4.29;100.00;97774.72;5069920;28;19974;-60
2022/11/28 11:54:57;;;;;;;;;;;;;;;4.27;100.00;97769.66;5064604;28;19924;-60
2022/11/28 11:57:24;;;;;;;;;;;;;;;4.12;100.00;97779.81;5070911;28;19932;-60
2022/11/28 11:59:53;;;;;;;;;;;;;;;4.21;100.00;97777.66;5071269;28;19927;-60
2022/11/28 12:02:23;;;;;;;;;;;;;;;4.32;100.00;97780.38;5070817;28;19981;-61
2022/11/28 12:04:50;;;;;;;;;;;;;;;4.40;100.00;97779.22;5070947;28;19934;-60
2022/11/28 12:07:21;;;;;;;;;;;;;;;4.43;100.00;97777.94;5070572;28;19925;-60
2022/11/28 12:09:49;;;;;;;;;;;;;;;4.40;100.00;97786.34;5070670;28;19924;-61
2022/11/28 12:12:17;;;;;;;;;;;;;;;4.41;100.00;97787.97;5070363;28;20092;-60
2022/11/28 12:14:43;;;;;;;;;;;;;;;4.42;100.00;97779.00;5070576;28;19964;-60
2022/11/28 12:17:30;;;;;;;;;;;;;;;4.43;100.00;97781.41;5070612;28;19932;-61
2022/11/28 12:20:05;;;;;;;;;;;;;;;4.42;100.00;97776.38;5059752;28;19925;-60
2022/11/28 12:22:35;;;;;;;;;;;;;;;4.37;100.00;97779.66;5068792;28;19937;-61
2022/11/28 12:25:07;;;;;;;;;;;;;;;4.35;100.00;97773.81;5070499;28;19929;-60
2022/11/28 12:27:40;;;;;;;;;;;;;;;4.51;100.00;97767.06;5070498;28;19959;-61
2022/11/28 12:30:16;;;;;;;;;;;;;;;4.42;100.00;97774.53;5070469;28;19920;-60
2022/11/28 12:32:49;;;;;;;;;;;;;;;4.47;100.00;97765.91;5062976;28;19925;-61
2022/11/28 12:35:24;;;;;;;;;;;;;;;4.60;100.00;97760.41;5070206;28;19984;-61
2022/11/28 12:37:54;;;;;;;;;;;;;;;4.61;100.00;97762.03;5070112;28;19979;-60
2022/11/28 12:40:30;;;;;;;;;;;;;;;4.59;100.00;97769.38;5069844;28;19925;-59
2022/11/28 12:43:05;;;;;;;;;;;;;;;4.68;100.00;97771.44;5069885;28;19959;-61
2022/11/28 12:45:36;;;;;;;;;;;;;;;4.81;100.00;97770.44;5069772;28;19952;-60
2022/11/28 12:48:08;;;;;;;;;;;;;;;4.77;100.00;97771.91;5069765;28;19936;-60
2022/11/28 12:50:38;;;;;;;;;;;;;;;4.64;100.00;97762.34;5069710;28;19996;-59
2022/11/28 12:53:25;;;;;;;;;;;;;;;4.58;100.00;97755.34;5068263;28;20278;-60
2022/11/28 12:55:56;;;;;;;;;;;;;;;4.55;100.00;97753.16;5063644;28;19932;-61